sensor_id;sensor_type;location;lat;lon;timestamp;temperature;humidity
78733;DHT22;68056;52.530;5.454;2023-04-06T00:01:38;4.10;56.10
78733;DHT22;68056;52.530;5.454;2023-04-06T00:04:04;4.10;56.10
78733;DHT22;68056;52.530;5.454;2023-04-06T00:06:30;4.10;56.20
78733;DHT22;68056;52.530;5.454;2023-04-06T00:08:56;4.00;56.20
78733;DHT22;68056;52.530;5.454;2023-04-06T00:11:22;4.00;56.20
78733;DHT22;68056;52.530;5.454;2023-04-06T00:13:47;4.00;56.30
78733;DHT22;68056;52.530;5.454;2023-04-06T00:16:13;3.90;56.30
78733;DHT22;68056;52.530;5.454;2023-04-06T00:18:39;3.90;56.40
78733;DHT22;68056;52.530;5.454;2023-04-06T00:21:05;3.90;56.40
78733;DHT22;68056;52.530;5.454;2023-04-06T00:23:31;3.70;56.50
78733;DHT22;68056;52.530;5.454;2023-04-06T00:25:56;3.70;56.60
78733;DHT22;68056;52.530;5.454;2023-04-06T00:28:22;3.70;56.60
78733;DHT22;68056;52.530;5.454;2023-04-06T00:30:52;3.70;56.60
78733;DHT22;68056;52.530;5.454;2023-04-06T00:33:18;3.70;56.60
78733;DHT22;68056;52.530;5.454;2023-04-06T00:35:44;3.60;56.70
78733;DHT22;68056;52.530;5.454;2023-04-06T00:38:11;3.60;56.70
78733;DHT22;68056;52.530;5.454;2023-04-06T00:40:36;3.60;56.70
78733;DHT22;68056;52.530;5.454;2023-04-06T00:43:02;3.50;56.70
78733;DHT22;68056;52.530;5.454;2023-04-06T00:45:28;3.50;56.90
78733;DHT22;68056;52.530;5.454;2023-04-06T00:47:53;3.40;56.90
78733;DHT22;68056;52.530;5.454;2023-04-06T00:50:19;3.40;57.00
78733;DHT22;68056;52.530;5.454;2023-04-06T00:52:45;3.40;57.00
78733;DHT22;68056;52.530;5.454;2023-04-06T00:55:11;3.30;57.10
78733;DHT22;68056;52.530;5.454;2023-04-06T00:57:36;3.30;57.10
78733;DHT22;68056;52.530;5.454;2023-04-06T01:00:06;3.30;57.10
78733;DHT22;68056;52.530;5.454;2023-04-06T01:02:32;3.30;57.10
78733;DHT22;68056;52.530;5.454;2023-04-06T01:04:57;3.30;57.10
78733;DHT22;68056;52.530;5.454;2023-04-06T01:07:23;3.30;57.10
78733;DHT22;68056;52.530;5.454;2023-04-06T01:09:49;3.30;57.10
78733;DHT22;68056;52.530;5.454;2023-04-06T01:12:15;3.20;57.20
78733;DHT22;68056;52.530;5.454;2023-04-06T01:14:41;3.20;57.20
78733;DHT22;68056;52.530;5.454;2023-04-06T01:17:07;3.20;57.20
78733;DHT22;68056;52.530;5.454;2023-04-06T01:19:32;3.20;57.20
78733;DHT22;68056;52.530;5.454;2023-04-06T01:21:58;3.10;57.20
78733;DHT22;68056;52.530;5.454;2023-04-06T01:24:24;3.10;57.30
78733;DHT22;68056;52.530;5.454;2023-04-06T01:26:50;3.10;57.30
78733;DHT22;68056;52.530;5.454;2023-04-06T01:29:15;3.10;57.40
78733;DHT22;68056;52.530;5.454;2023-04-06T01:31:41;3.00;57.40
78733;DHT22;68056;52.530;5.454;2023-04-06T01:34:06;3.00;57.30
78733;DHT22;68056;52.530;5.454;2023-04-06T01:36:32;3.00;57.30
78733;DHT22;68056;52.530;5.454;2023-04-06T01:38:58;3.00;57.30
78733;DHT22;68056;52.530;5.454;2023-04-06T01:41:23;3.00;57.30
78733;DHT22;68056;52.530;5.454;2023-04-06T01:43:49;3.00;57.40
78733;DHT22;68056;52.530;5.454;2023-04-06T01:46:18;3.00;57.30
78733;DHT22;68056;52.530;5.454;2023-04-06T01:48:43;3.00;57.40
78733;DHT22;68056;52.530;5.454;2023-04-06T01:51:09;3.00;57.40
78733;DHT22;68056;52.530;5.454;2023-04-06T01:53:34;3.00;57.40
78733;DHT22;68056;52.530;5.454;2023-04-06T01:56:00;3.00;57.40
78733;DHT22;68056;52.530;5.454;2023-04-06T01:58:25;3.00;57.40
78733;DHT22;68056;52.530;5.454;2023-04-06T02:00:51;3.00;57.50
78733;DHT22;68056;52.530;5.454;2023-04-06T02:03:17;3.00;57.50
78733;DHT22;68056;52.530;5.454;2023-04-06T02:05:42;3.00;57.50
78733;DHT22;68056;52.530;5.454;2023-04-06T02:08:08;3.00;57.50
78733;DHT22;68056;52.530;5.454;2023-04-06T02:10:34;3.00;57.50
78733;DHT22;68056;52.530;5.454;2023-04-06T02:12:59;3.00;57.50
78733;DHT22;68056;52.530;5.454;2023-04-06T02:15:26;3.00;57.50
78733;DHT22;68056;52.530;5.454;2023-04-06T02:17:51;3.00;57.50
78733;DHT22;68056;52.530;5.454;2023-04-06T02:20:17;3.00;57.50
78733;DHT22;68056;52.530;5.454;2023-04-06T02:22:43;3.00;57.50
78733;DHT22;68056;52.530;5.454;2023-04-06T02:25:09;3.00;57.50
78733;DHT22;68056;52.530;5.454;2023-04-06T02:27:35;3.00;57.60
78733;DHT22;68056;52.530;5.454;2023-04-06T02:30:02;3.10;57.60
78733;DHT22;68056;52.530;5.454;2023-04-06T02:32:27;3.10;57.60
78733;DHT22;68056;52.530;5.454;2023-04-06T02:34:53;3.10;57.60
78733;DHT22;68056;52.530;5.454;2023-04-06T02:37:21;3.10;57.60
78733;DHT22;68056;52.530;5.454;2023-04-06T02:39:51;3.10;57.70
78733;DHT22;68056;52.530;5.454;2023-04-06T02:42:16;3.10;57.70
78733;DHT22;68056;52.530;5.454;2023-04-06T02:44:43;3.20;57.60
78733;DHT22;68056;52.530;5.454;2023-04-06T02:47:08;3.30;57.60
78733;DHT22;68056;52.530;5.454;2023-04-06T02:49:34;3.30;57.50
78733;DHT22;68056;52.530;5.454;2023-04-06T02:51:59;3.30;57.50
78733;DHT22;68056;52.530;5.454;2023-04-06T02:54:25;3.30;57.50
78733;DHT22;68056;52.530;5.454;2023-04-06T02:56:52;3.30;57.50
78733;DHT22;68056;52.530;5.454;2023-04-06T02:59:17;3.30;57.40
78733;DHT22;68056;52.530;5.454;2023-04-06T03:01:43;3.40;57.30
78733;DHT22;68056;52.530;5.454;2023-04-06T03:04:08;3.50;57.30
78733;DHT22;68056;52.530;5.454;2023-04-06T03:06:34;3.50;57.30
78733;DHT22;68056;52.530;5.454;2023-04-06T03:08:59;3.50;57.30
78733;DHT22;68056;52.530;5.454;2023-04-06T03:11:25;3.50;57.20
78733;DHT22;68056;52.530;5.454;2023-04-06T03:13:52;3.50;57.20
78733;DHT22;68056;52.530;5.454;2023-04-06T03:16:17;3.50;57.20
78733;DHT22;68056;52.530;5.454;2023-04-06T03:18:43;3.50;57.20
78733;DHT22;68056;52.530;5.454;2023-04-06T03:21:10;3.50;57.30
78733;DHT22;68056;52.530;5.454;2023-04-06T03:23:36;3.50;57.20
78733;DHT22;68056;52.530;5.454;2023-04-06T03:26:02;3.50;57.30
78733;DHT22;68056;52.530;5.454;2023-04-06T03:28:27;3.60;57.20
78733;DHT22;68056;52.530;5.454;2023-04-06T03:30:53;3.60;57.20
78733;DHT22;68056;52.530;5.454;2023-04-06T03:33:19;3.60;57.20
78733;DHT22;68056;52.530;5.454;2023-04-06T03:35:44;3.60;57.20
78733;DHT22;68056;52.530;5.454;2023-04-06T03:38:10;3.70;57.20
78733;DHT22;68056;52.530;5.454;2023-04-06T03:40:35;3.70;57.10
78733;DHT22;68056;52.530;5.454;2023-04-06T03:43:01;3.70;57.20
78733;DHT22;68056;52.530;5.454;2023-04-06T03:45:27;3.70;57.20
78733;DHT22;68056;52.530;5.454;2023-04-06T03:47:52;3.70;57.10
78733;DHT22;68056;52.530;5.454;2023-04-06T03:50:18;3.70;57.20
78733;DHT22;68056;52.530;5.454;2023-04-06T03:52:43;3.70;57.10
78733;DHT22;68056;52.530;5.454;2023-04-06T03:55:12;3.70;57.20
78733;DHT22;68056;52.530;5.454;2023-04-06T03:57:37;3.70;57.20
78733;DHT22;68056;52.530;5.454;2023-04-06T04:00:03;3.70;57.30
78733;DHT22;68056;52.530;5.454;2023-04-06T04:02:29;3.80;57.30
78733;DHT22;68056;52.530;5.454;2023-04-06T04:04:54;3.80;57.30
78733;DHT22;68056;52.530;5.454;2023-04-06T04:07:20;3.80;57.40
78733;DHT22;68056;52.530;5.454;2023-04-06T04:09:45;3.80;57.40
78733;DHT22;68056;52.530;5.454;2023-04-06T04:12:11;3.80;57.50
78733;DHT22;68056;52.530;5.454;2023-04-06T04:14:36;3.80;57.50
78733;DHT22;68056;52.530;5.454;2023-04-06T04:17:02;3.80;57.50
78733;DHT22;68056;52.530;5.454;2023-04-06T04:19:28;3.80;57.50
78733;DHT22;68056;52.530;5.454;2023-04-06T04:21:53;3.90;57.40
78733;DHT22;68056;52.530;5.454;2023-04-06T04:24:19;3.80;57.50
78733;DHT22;68056;52.530;5.454;2023-04-06T04:26:44;3.80;57.40
78733;DHT22;68056;52.530;5.454;2023-04-06T04:29:10;3.80;57.50
78733;DHT22;68056;52.530;5.454;2023-04-06T04:31:35;3.80;57.40
78733;DHT22;68056;52.530;5.454;2023-04-06T04:34:01;3.80;57.40
78733;DHT22;68056;52.530;5.454;2023-04-06T04:36:27;3.80;57.40
78733;DHT22;68056;52.530;5.454;2023-04-06T04:38:55;3.80;57.30
78733;DHT22;68056;52.530;5.454;2023-04-06T04:41:21;3.90;57.30
78733;DHT22;68056;52.530;5.454;2023-04-06T04:43:46;3.90;57.30
78733;DHT22;68056;52.530;5.454;2023-04-06T04:46:12;3.90;57.20
78733;DHT22;68056;52.530;5.454;2023-04-06T04:48:37;3.90;57.20
78733;DHT22;68056;52.530;5.454;2023-04-06T04:51:04;3.90;57.30
78733;DHT22;68056;52.530;5.454;2023-04-06T04:53:30;3.90;57.30
78733;DHT22;68056;52.530;5.454;2023-04-06T04:55:55;3.90;57.20
78733;DHT22;68056;52.530;5.454;2023-04-06T04:58:21;3.90;57.20
78733;DHT22;68056;52.530;5.454;2023-04-06T05:00:46;3.90;57.20
78733;DHT22;68056;52.530;5.454;2023-04-06T05:03:25;3.90;57.20
78733;DHT22;68056;52.530;5.454;2023-04-06T05:05:51;3.90;57.10
78733;DHT22;68056;52.530;5.454;2023-04-06T05:08:17;3.90;57.10
78733;DHT22;68056;52.530;5.454;2023-04-06T05:10:43;3.90;57.10
78733;DHT22;68056;52.530;5.454;2023-04-06T05:13:09;3.90;57.00
78733;DHT22;68056;52.530;5.454;2023-04-06T05:15:35;3.90;57.00
78733;DHT22;68056;52.530;5.454;2023-04-06T05:18:03;3.90;56.90
78733;DHT22;68056;52.530;5.454;2023-04-06T05:20:29;3.90;57.00
78733;DHT22;68056;52.530;5.454;2023-04-06T05:22:54;3.90;56.90
78733;DHT22;68056;52.530;5.454;2023-04-06T05:25:20;3.90;56.90
78733;DHT22;68056;52.530;5.454;2023-04-06T05:27:46;3.90;56.90
78733;DHT22;68056;52.530;5.454;2023-04-06T05:30:12;3.90;56.80
78733;DHT22;68056;52.530;5.454;2023-04-06T05:32:37;3.90;56.90
78733;DHT22;68056;52.530;5.454;2023-04-06T05:35:03;3.90;56.90
78733;DHT22;68056;52.530;5.454;2023-04-06T05:37:29;4.00;56.80
78733;DHT22;68056;52.530;5.454;2023-04-06T05:39:54;4.00;56.80
78733;DHT22;68056;52.530;5.454;2023-04-06T05:42:20;4.10;56.80
78733;DHT22;68056;52.530;5.454;2023-04-06T05:44:46;4.10;56.60
78733;DHT22;68056;52.530;5.454;2023-04-06T05:47:11;4.20;56.60
78733;DHT22;68056;52.530;5.454;2023-04-06T05:49:37;4.30;56.50
78733;DHT22;68056;52.530;5.454;2023-04-06T05:52:03;4.30;56.50
78733;DHT22;68056;52.530;5.454;2023-04-06T05:54:29;4.40;56.40
78733;DHT22;68056;52.530;5.454;2023-04-06T05:56:55;4.50;56.40
78733;DHT22;68056;52.530;5.454;2023-04-06T05:59:21;4.50;56.30
78733;DHT22;68056;52.530;5.454;2023-04-06T06:01:47;4.60;56.20
78733;DHT22;68056;52.530;5.454;2023-04-06T06:04:13;4.70;56.20
78733;DHT22;68056;52.530;5.454;2023-04-06T06:06:38;4.80;56.10
78733;DHT22;68056;52.530;5.454;2023-04-06T06:09:04;4.90;56.00
78733;DHT22;68056;52.530;5.454;2023-04-06T06:11:32;5.00;55.90
78733;DHT22;68056;52.530;5.454;2023-04-06T06:13:58;5.00;55.80
78733;DHT22;68056;52.530;5.454;2023-04-06T06:16:24;5.10;55.70
78733;DHT22;68056;52.530;5.454;2023-04-06T06:18:49;5.30;55.60
78733;DHT22;68056;52.530;5.454;2023-04-06T06:21:15;5.30;55.50
78733;DHT22;68056;52.530;5.454;2023-04-06T06:23:42;5.40;55.40
78733;DHT22;68056;52.530;5.454;2023-04-06T06:26:08;5.50;55.30
78733;DHT22;68056;52.530;5.454;2023-04-06T06:28:33;5.60;55.30
78733;DHT22;68056;52.530;5.454;2023-04-06T06:30:59;5.90;55.00
78733;DHT22;68056;52.530;5.454;2023-04-06T06:33:25;6.00;54.80
78733;DHT22;68056;52.530;5.454;2023-04-06T06:35:51;6.20;54.70
78733;DHT22;68056;52.530;5.454;2023-04-06T06:38:17;6.40;54.50
78733;DHT22;68056;52.530;5.454;2023-04-06T06:40:43;6.50;54.40
78733;DHT22;68056;52.530;5.454;2023-04-06T06:43:08;6.80;54.10
78733;DHT22;68056;52.530;5.454;2023-04-06T06:45:34;7.00;53.70
78733;DHT22;68056;52.530;5.454;2023-04-06T06:48:03;7.20;53.40
78733;DHT22;68056;52.530;5.454;2023-04-06T06:50:31;7.40;53.20
78733;DHT22;68056;52.530;5.454;2023-04-06T06:52:57;7.30;53.00
78733;DHT22;68056;52.530;5.454;2023-04-06T06:55:22;7.30;53.10
78733;DHT22;68056;52.530;5.454;2023-04-06T06:57:48;7.30;53.20
78733;DHT22;68056;52.530;5.454;2023-04-06T07:00:14;7.20;53.40
78733;DHT22;68056;52.530;5.454;2023-04-06T07:02:39;7.30;53.40
78733;DHT22;68056;52.530;5.454;2023-04-06T07:05:05;7.30;53.50
78733;DHT22;68056;52.530;5.454;2023-04-06T07:07:34;7.20;53.50
78733;DHT22;68056;52.530;5.454;2023-04-06T07:10:00;7.20;53.60
78733;DHT22;68056;52.530;5.454;2023-04-06T07:12:26;7.20;53.60
78733;DHT22;68056;52.530;5.454;2023-04-06T07:14:52;7.30;53.60
78733;DHT22;68056;52.530;5.454;2023-04-06T07:17:18;7.40;53.60
78733;DHT22;68056;52.530;5.454;2023-04-06T07:19:43;7.40;53.60
78733;DHT22;68056;52.530;5.454;2023-04-06T07:22:13;7.50;53.50
78733;DHT22;68056;52.530;5.454;2023-04-06T07:24:38;7.60;53.40
78733;DHT22;68056;52.530;5.454;2023-04-06T07:27:04;7.60;53.30
78733;DHT22;68056;52.530;5.454;2023-04-06T07:29:30;7.80;53.20
78733;DHT22;68056;52.530;5.454;2023-04-06T07:31:55;7.80;53.10
78733;DHT22;68056;52.530;5.454;2023-04-06T07:34:22;8.00;53.00
78733;DHT22;68056;52.530;5.454;2023-04-06T07:36:47;8.00;52.90
78733;DHT22;68056;52.530;5.454;2023-04-06T07:39:13;8.10;52.70
78733;DHT22;68056;52.530;5.454;2023-04-06T07:41:39;8.10;52.70
78733;DHT22;68056;52.530;5.454;2023-04-06T07:44:05;8.10;52.50
78733;DHT22;68056;52.530;5.454;2023-04-06T07:46:33;8.20;52.70
78733;DHT22;68056;52.530;5.454;2023-04-06T07:49:00;8.20;52.60
78733;DHT22;68056;52.530;5.454;2023-04-06T07:51:28;8.20;52.70
78733;DHT22;68056;52.530;5.454;2023-04-06T07:53:54;8.20;52.60
78733;DHT22;68056;52.530;5.454;2023-04-06T07:56:19;8.20;52.60
78733;DHT22;68056;52.530;5.454;2023-04-06T07:58:46;8.20;52.60
78733;DHT22;68056;52.530;5.454;2023-04-06T08:01:11;8.10;52.60
78733;DHT22;68056;52.530;5.454;2023-04-06T08:03:37;8.10;52.60
78733;DHT22;68056;52.530;5.454;2023-04-06T08:06:03;8.20;52.70
78733;DHT22;68056;52.530;5.454;2023-04-06T08:08:29;8.20;52.50
78733;DHT22;68056;52.530;5.454;2023-04-06T08:10:56;8.20;52.60
78733;DHT22;68056;52.530;5.454;2023-04-06T08:13:21;8.20;52.60
78733;DHT22;68056;52.530;5.454;2023-04-06T08:15:47;8.20;52.70
78733;DHT22;68056;52.530;5.454;2023-04-06T08:18:12;8.20;52.60
78733;DHT22;68056;52.530;5.454;2023-04-06T08:20:39;8.20;52.60
78733;DHT22;68056;52.530;5.454;2023-04-06T08:23:04;8.30;52.50
78733;DHT22;68056;52.530;5.454;2023-04-06T08:25:33;8.30;52.50
78733;DHT22;68056;52.530;5.454;2023-04-06T08:30:34;8.30;52.60
78733;DHT22;68056;52.530;5.454;2023-04-06T08:32:59;8.30;52.60
78733;DHT22;68056;52.530;5.454;2023-04-06T08:35:26;8.40;52.60
78733;DHT22;68056;52.530;5.454;2023-04-06T08:37:51;8.40;52.70
78733;DHT22;68056;52.530;5.454;2023-04-06T08:40:17;8.50;52.60
78733;DHT22;68056;52.530;5.454;2023-04-06T08:42:52;8.60;52.70
78733;DHT22;68056;52.530;5.454;2023-04-06T08:45:18;8.70;52.70
78733;DHT22;68056;52.530;5.454;2023-04-06T08:47:52;8.80;52.60
78733;DHT22;68056;52.530;5.454;2023-04-06T08:50:19;8.90;52.60
78733;DHT22;68056;52.530;5.454;2023-04-06T08:52:48;8.90;52.60
78733;DHT22;68056;52.530;5.454;2023-04-06T08:55:15;9.00;52.60
78733;DHT22;68056;52.530;5.454;2023-04-06T08:57:41;9.00;52.60
78733;DHT22;68056;52.530;5.454;2023-04-06T09:00:09;9.10;52.60
78733;DHT22;68056;52.530;5.454;2023-04-06T09:02:39;9.10;52.50
78733;DHT22;68056;52.530;5.454;2023-04-06T09:05:05;9.20;52.60
78733;DHT22;68056;52.530;5.454;2023-04-06T09:07:30;9.20;52.60
78733;DHT22;68056;52.530;5.454;2023-04-06T09:09:56;9.30;52.60
78733;DHT22;68056;52.530;5.454;2023-04-06T09:12:30;9.40;52.60
78733;DHT22;68056;52.530;5.454;2023-04-06T09:14:57;9.40;52.50
78733;DHT22;68056;52.530;5.454;2023-04-06T09:17:24;9.40;52.50
78733;DHT22;68056;52.530;5.454;2023-04-06T09:19:50;9.40;52.50
78733;DHT22;68056;52.530;5.454;2023-04-06T09:22:16;9.40;52.70
78733;DHT22;68056;52.530;5.454;2023-04-06T09:24:53;9.60;52.60
78733;DHT22;68056;52.530;5.454;2023-04-06T09:27:34;9.70;52.60
78733;DHT22;68056;52.530;5.454;2023-04-06T09:30:08;9.90;52.50
78733;DHT22;68056;52.530;5.454;2023-04-06T09:32:53;10.10;52.50
78733;DHT22;68056;52.530;5.454;2023-04-06T09:35:20;10.40;52.20
78733;DHT22;68056;52.530;5.454;2023-04-06T09:37:46;10.60;52.00
78733;DHT22;68056;52.530;5.454;2023-04-06T09:40:13;10.80;51.80
78733;DHT22;68056;52.530;5.454;2023-04-06T09:42:41;11.00;51.70
78733;DHT22;68056;52.530;5.454;2023-04-06T09:45:07;11.10;51.60
78733;DHT22;68056;52.530;5.454;2023-04-06T09:47:33;11.30;51.50
78733;DHT22;68056;52.530;5.454;2023-04-06T09:50:02;11.30;51.50
78733;DHT22;68056;52.530;5.454;2023-04-06T09:52:33;11.30;51.60
78733;DHT22;68056;52.530;5.454;2023-04-06T09:55:03;11.30;51.40
78733;DHT22;68056;52.530;5.454;2023-04-06T09:57:32;11.10;51.40
78733;DHT22;68056;52.530;5.454;2023-04-06T10:00:05;11.00;51.50
78733;DHT22;68056;52.530;5.454;2023-04-06T10:05:26;10.80;51.80
78733;DHT22;68056;52.530;5.454;2023-04-06T10:07:57;10.70;52.00
78733;DHT22;68056;52.530;5.454;2023-04-06T10:10:23;10.80;52.20
78733;DHT22;68056;52.530;5.454;2023-04-06T10:12:48;10.70;52.30
78733;DHT22;68056;52.530;5.454;2023-04-06T10:15:15;10.70;52.30
78733;DHT22;68056;52.530;5.454;2023-04-06T10:17:41;10.70;52.50
78733;DHT22;68056;52.530;5.454;2023-04-06T10:20:15;10.70;52.60
78733;DHT22;68056;52.530;5.454;2023-04-06T10:22:49;10.60;52.80
78733;DHT22;68056;52.530;5.454;2023-04-06T10:25:32;10.70;52.80
78733;DHT22;68056;52.530;5.454;2023-04-06T10:28:05;10.80;52.80
78733;DHT22;68056;52.530;5.454;2023-04-06T10:30:37;10.80;53.00
78733;DHT22;68056;52.530;5.454;2023-04-06T10:33:17;10.90;53.00
78733;DHT22;68056;52.530;5.454;2023-04-06T10:35:43;11.00;53.00
78733;DHT22;68056;52.530;5.454;2023-04-06T10:38:10;11.00;53.10
78733;DHT22;68056;52.530;5.454;2023-04-06T10:40:38;11.00;53.30
78733;DHT22;68056;52.530;5.454;2023-04-06T10:43:22;11.00;53.50
78733;DHT22;68056;52.530;5.454;2023-04-06T10:45:59;11.10;53.60
78733;DHT22;68056;52.530;5.454;2023-04-06T10:48:39;11.10;53.70
78733;DHT22;68056;52.530;5.454;2023-04-06T10:51:13;11.10;53.80
78733;DHT22;68056;52.530;5.454;2023-04-06T10:53:46;11.00;53.90
78733;DHT22;68056;52.530;5.454;2023-04-06T10:56:15;11.00;54.00
78733;DHT22;68056;52.530;5.454;2023-04-06T10:58:48;11.00;54.10
78733;DHT22;68056;52.530;5.454;2023-04-06T11:01:21;11.00;54.20
78733;DHT22;68056;52.530;5.454;2023-04-06T11:03:54;11.00;54.20
78733;DHT22;68056;52.530;5.454;2023-04-06T11:06:25;10.90;54.40
78733;DHT22;68056;52.530;5.454;2023-04-06T11:08:52;10.90;54.40
78733;DHT22;68056;52.530;5.454;2023-04-06T11:11:20;11.00;54.60
78733;DHT22;68056;52.530;5.454;2023-04-06T11:13:49;11.10;54.70
78733;DHT22;68056;52.530;5.454;2023-04-06T11:16:16;11.10;54.90
78733;DHT22;68056;52.530;5.454;2023-04-06T11:18:50;11.10;55.20
78733;DHT22;68056;52.530;5.454;2023-04-06T11:21:16;11.10;55.50
78733;DHT22;68056;52.530;5.454;2023-04-06T11:23:42;11.40;55.40
78733;DHT22;68056;52.530;5.454;2023-04-06T11:26:12;11.50;55.40
78733;DHT22;68056;52.530;5.454;2023-04-06T11:28:40;11.70;55.30
78733;DHT22;68056;52.530;5.454;2023-04-06T11:31:07;11.70;55.40
78733;DHT22;68056;52.530;5.454;2023-04-06T11:33:37;11.70;55.60
78733;DHT22;68056;52.530;5.454;2023-04-06T11:36:05;11.60;56.00
78733;DHT22;68056;52.530;5.454;2023-04-06T11:38:31;11.50;56.30
78733;DHT22;68056;52.530;5.454;2023-04-06T11:40:57;11.20;56.80
78733;DHT22;68056;52.530;5.454;2023-04-06T11:43:27;11.10;57.10
78733;DHT22;68056;52.530;5.454;2023-04-06T11:46:00;10.90;57.50
78733;DHT22;68056;52.530;5.454;2023-04-06T11:48:26;10.70;58.20
78733;DHT22;68056;52.530;5.454;2023-04-06T11:50:58;10.50;58.50
78733;DHT22;68056;52.530;5.454;2023-04-06T11:53:29;10.30;59.20
78733;DHT22;68056;52.530;5.454;2023-04-06T11:55:55;10.20;59.50
78733;DHT22;68056;52.530;5.454;2023-04-06T11:58:21;10.00;59.90
78733;DHT22;68056;52.530;5.454;2023-04-06T12:00:46;10.00;60.50
78733;DHT22;68056;52.530;5.454;2023-04-06T12:03:12;9.80;60.90
78733;DHT22;68056;52.530;5.454;2023-04-06T12:05:38;9.80;61.00
78733;DHT22;68056;52.530;5.454;2023-04-06T12:08:04;9.70;61.20
78733;DHT22;68056;52.530;5.454;2023-04-06T12:10:30;9.70;61.50
78733;DHT22;68056;52.530;5.454;2023-04-06T12:12:55;9.70;61.80
78733;DHT22;68056;52.530;5.454;2023-04-06T12:15:21;9.60;61.90
78733;DHT22;68056;52.530;5.454;2023-04-06T12:17:47;9.60;62.20
78733;DHT22;68056;52.530;5.454;2023-04-06T12:20:12;9.60;62.30
78733;DHT22;68056;52.530;5.454;2023-04-06T12:22:38;9.60;62.60
78733;DHT22;68056;52.530;5.454;2023-04-06T12:25:05;9.60;62.60
78733;DHT22;68056;52.530;5.454;2023-04-06T12:27:32;9.50;62.70
78733;DHT22;68056;52.530;5.454;2023-04-06T12:29:57;9.50;62.90
78733;DHT22;68056;52.530;5.454;2023-04-06T12:32:23;9.40;63.20
78733;DHT22;68056;52.530;5.454;2023-04-06T12:34:48;9.40;63.40
78733;DHT22;68056;52.530;5.454;2023-04-06T12:37:14;9.20;63.50
78733;DHT22;68056;52.530;5.454;2023-04-06T12:39:40;9.20;63.80
78733;DHT22;68056;52.530;5.454;2023-04-06T12:42:06;9.20;64.00
78733;DHT22;68056;52.530;5.454;2023-04-06T12:44:32;9.20;64.50
78733;DHT22;68056;52.530;5.454;2023-04-06T12:46:57;9.00;64.70
78733;DHT22;68056;52.530;5.454;2023-04-06T12:49:23;9.00;64.80
78733;DHT22;68056;52.530;5.454;2023-04-06T12:51:48;9.00;65.00
78733;DHT22;68056;52.530;5.454;2023-04-06T12:54:14;9.10;64.90
78733;DHT22;68056;52.530;5.454;2023-04-06T12:56:39;9.20;65.00
78733;DHT22;68056;52.530;5.454;2023-04-06T12:59:05;9.20;64.80
78733;DHT22;68056;52.530;5.454;2023-04-06T13:01:31;9.30;64.80
78733;DHT22;68056;52.530;5.454;2023-04-06T13:03:57;9.30;64.70
78733;DHT22;68056;52.530;5.454;2023-04-06T13:06:24;9.20;64.80
78733;DHT22;68056;52.530;5.454;2023-04-06T13:08:52;9.20;64.90
78733;DHT22;68056;52.530;5.454;2023-04-06T13:11:18;9.20;65.00
78733;DHT22;68056;52.530;5.454;2023-04-06T13:13:45;9.20;65.00
78733;DHT22;68056;52.530;5.454;2023-04-06T13:16:11;9.20;65.10
78733;DHT22;68056;52.530;5.454;2023-04-06T13:18:37;9.10;65.20
78733;DHT22;68056;52.530;5.454;2023-04-06T13:21:04;9.00;65.50
78733;DHT22;68056;52.530;5.454;2023-04-06T13:23:31;9.00;65.50
78733;DHT22;68056;52.530;5.454;2023-04-06T13:26:04;9.00;65.50
78733;DHT22;68056;52.530;5.454;2023-04-06T13:28:30;8.90;65.90
78733;DHT22;68056;52.530;5.454;2023-04-06T13:30:58;8.80;66.10
78733;DHT22;68056;52.530;5.454;2023-04-06T13:33:25;8.80;66.10
78733;DHT22;68056;52.530;5.454;2023-04-06T13:35:51;8.80;66.10
78733;DHT22;68056;52.530;5.454;2023-04-06T13:38:17;8.80;66.20
78733;DHT22;68056;52.530;5.454;2023-04-06T13:40:42;8.80;66.20
78733;DHT22;68056;52.530;5.454;2023-04-06T13:43:08;8.70;66.50
78733;DHT22;68056;52.530;5.454;2023-04-06T13:45:33;8.60;66.60
78733;DHT22;68056;52.530;5.454;2023-04-06T13:47:59;8.60;66.60
78733;DHT22;68056;52.530;5.454;2023-04-06T13:50:26;8.60;66.80
78733;DHT22;68056;52.530;5.454;2023-04-06T13:52:52;8.60;66.80
78733;DHT22;68056;52.530;5.454;2023-04-06T13:55:17;8.60;66.90
78733;DHT22;68056;52.530;5.454;2023-04-06T13:57:43;8.70;66.90
78733;DHT22;68056;52.530;5.454;2023-04-06T14:00:09;8.70;67.10
78733;DHT22;68056;52.530;5.454;2023-04-06T14:02:36;8.60;67.10
78733;DHT22;68056;52.530;5.454;2023-04-06T14:05:02;8.60;67.30
78733;DHT22;68056;52.530;5.454;2023-04-06T14:07:28;8.60;67.30
78733;DHT22;68056;52.530;5.454;2023-04-06T14:09:54;8.60;67.60
78733;DHT22;68056;52.530;5.454;2023-04-06T14:12:19;8.60;67.70
78733;DHT22;68056;52.530;5.454;2023-04-06T14:14:45;8.50;67.80
78733;DHT22;68056;52.530;5.454;2023-04-06T14:17:11;8.50;68.00
78733;DHT22;68056;52.530;5.454;2023-04-06T14:19:37;8.40;68.10
78733;DHT22;68056;52.530;5.454;2023-04-06T14:22:03;8.40;68.20
78733;DHT22;68056;52.530;5.454;2023-04-06T14:24:29;8.40;68.40
78733;DHT22;68056;52.530;5.454;2023-04-06T14:26:55;8.40;68.50
78733;DHT22;68056;52.530;5.454;2023-04-06T14:29:21;8.30;68.60
78733;DHT22;68056;52.530;5.454;2023-04-06T14:31:48;8.30;68.70
78733;DHT22;68056;52.530;5.454;2023-04-06T14:34:13;8.30;68.80
78733;DHT22;68056;52.530;5.454;2023-04-06T14:36:40;8.30;68.80
78733;DHT22;68056;52.530;5.454;2023-04-06T14:39:06;8.30;68.70
78733;DHT22;68056;52.530;5.454;2023-04-06T14:41:33;8.30;68.70
78733;DHT22;68056;52.530;5.454;2023-04-06T14:43:59;8.20;69.00
78733;DHT22;68056;52.530;5.454;2023-04-06T14:46:25;8.20;69.10
78733;DHT22;68056;52.530;5.454;2023-04-06T14:48:54;8.20;69.20
78733;DHT22;68056;52.530;5.454;2023-04-06T14:51:19;8.20;69.20
78733;DHT22;68056;52.530;5.454;2023-04-06T14:53:45;8.10;69.30
78733;DHT22;68056;52.530;5.454;2023-04-06T14:56:10;8.20;69.60
78733;DHT22;68056;52.530;5.454;2023-04-06T14:58:36;8.10;69.50
78733;DHT22;68056;52.530;5.454;2023-04-06T15:01:02;8.20;69.50
78733;DHT22;68056;52.530;5.454;2023-04-06T15:03:28;8.20;69.60
78733;DHT22;68056;52.530;5.454;2023-04-06T15:05:55;8.20;69.60
78733;DHT22;68056;52.530;5.454;2023-04-06T15:08:22;8.20;69.60
78733;DHT22;68056;52.530;5.454;2023-04-06T15:10:49;8.10;69.90
78733;DHT22;68056;52.530;5.454;2023-04-06T15:13:15;8.10;69.80
78733;DHT22;68056;52.530;5.454;2023-04-06T15:15:41;8.10;69.80
78733;DHT22;68056;52.530;5.454;2023-04-06T15:18:07;8.20;69.90
78733;DHT22;68056;52.530;5.454;2023-04-06T15:20:33;8.10;70.10
78733;DHT22;68056;52.530;5.454;2023-04-06T15:23:00;8.10;70.20
78733;DHT22;68056;52.530;5.454;2023-04-06T15:25:26;8.10;70.20
78733;DHT22;68056;52.530;5.454;2023-04-06T15:27:51;8.10;70.10
78733;DHT22;68056;52.530;5.454;2023-04-06T15:30:17;8.10;70.30
78733;DHT22;68056;52.530;5.454;2023-04-06T15:32:58;8.10;70.30
78733;DHT22;68056;52.530;5.454;2023-04-06T15:35:29;8.10;70.30
78733;DHT22;68056;52.530;5.454;2023-04-06T15:37:55;8.10;70.50
78733;DHT22;68056;52.530;5.454;2023-04-06T15:40:21;8.10;70.60
78733;DHT22;68056;52.530;5.454;2023-04-06T15:42:47;8.00;70.50
78733;DHT22;68056;52.530;5.454;2023-04-06T15:45:13;8.00;70.50
78733;DHT22;68056;52.530;5.454;2023-04-06T15:47:40;8.00;70.40